createdAt,value
2023-01-13T00:01:10.897Z,99453.72
2023-01-13T00:03:38.124Z,99465.41
2023-01-13T00:06:06.190Z,99450.50
2023-01-13T00:08:33.352Z,99453.81
2023-01-13T00:10:59.940Z,99461.00
2023-01-13T00:13:29.507Z,99457.00
2023-01-13T00:16:01.050Z,99452.31
2023-01-13T00:18:28.156Z,99453.59
2023-01-13T00:21:05.728Z,99444.75
2023-01-13T00:23:34.331Z,99449.19
2023-01-13T00:26:03.715Z,99453.13
2023-01-13T00:28:30.290Z,99444.66
2023-01-13T00:30:58.480Z,99460.00
2023-01-13T00:33:25.570Z,99453.41
2023-01-13T00:35:59.827Z,99444.22
2023-01-13T00:38:26.814Z,99436.38
2023-01-13T00:41:05.231Z,99439.53
2023-01-13T00:43:33.522Z,99438.25
2023-01-13T00:46:00.761Z,99447.69
2023-01-13T00:48:29.082Z,99425.84
2023-01-13T00:51:00.872Z,99439.69
2023-01-13T00:53:28.482Z,99441.09
2023-01-13T00:56:02.568Z,99436.53
2023-01-13T00:58:32.922Z,99424.34
2023-01-13T01:01:05.610Z,99432.47
2023-01-13T01:03:32.268Z,99438.38
2023-01-13T01:06:05.523Z,99429.56
2023-01-13T01:08:32.088Z,99442.72
2023-01-13T01:11:16.227Z,99430.41
2023-01-13T01:13:43.394Z,99425.41
2023-01-13T01:16:15.481Z,99416.13
2023-01-13T01:18:44.792Z,99417.38
2023-01-13T01:21:12.030Z,99411.66
2023-01-13T01:23:39.888Z,99398.19
2023-01-13T01:26:27.988Z,99403.13
2023-01-13T01:28:55.150Z,99390.16
2023-01-13T01:31:24.099Z,99390.00
2023-01-13T01:33:51.031Z,99384.94
2023-01-13T01:36:19.921Z,99380.59
2023-01-13T01:38:47.630Z,99397.47
2023-01-13T01:41:21.523Z,99385.47
2023-01-13T01:44:00.176Z,99399.69
2023-01-13T01:46:28.933Z,99399.03
2023-01-13T01:49:21.762Z,99396.59
2023-01-13T01:51:57.304Z,99393.53
2023-01-13T01:54:28.554Z,99377.34
2023-01-13T01:56:55.475Z,99375.88
2023-01-13T01:59:22.124Z,99380.00
2023-01-13T02:01:49.090Z,99374.41
2023-01-13T02:04:24.149Z,99371.03
2023-01-13T02:06:52.425Z,99368.31
2023-01-13T02:09:19.186Z,99359.53
2023-01-13T02:12:04.401Z,99351.50
2023-01-13T02:14:33.601Z,99362.53
2023-01-13T02:17:38.251Z,99350.56
2023-01-13T02:20:13.877Z,99352.66
2023-01-13T02:22:40.326Z,99344.91
2023-01-13T02:25:40.967Z,99362.25
2023-01-13T02:28:20.643Z,99338.06
2023-01-13T02:31:18.519Z,99346.06
2023-01-13T02:34:11.953Z,99340.91
2023-01-13T02:37:03.905Z,99345.09
2023-01-13T02:39:36.362Z,99339.47
2023-01-13T02:42:28.245Z,99329.50
2023-01-13T02:45:12.116Z,99335.53
2023-01-13T02:47:42.997Z,99318.88
2023-01-13T02:50:17.466Z,99325.06
2023-01-13T02:52:50.283Z,99312.47
2023-01-13T02:55:29.999Z,99319.34
2023-01-13T02:57:59.529Z,99306.91
2023-01-13T03:00:27.031Z,99304.78
2023-01-13T03:02:53.689Z,99307.66
2023-01-13T03:05:20.377Z,99313.50
2023-01-13T03:08:08.363Z,99312.72
2023-01-13T03:10:49.802Z,99322.47
2023-01-13T03:13:34.432Z,99314.81
2023-01-13T03:16:16.963Z,99318.50
2023-01-13T03:19:36.811Z,99319.84
2023-01-13T03:22:23.874Z,99318.13
2023-01-13T03:25:00.897Z,99322.16
2023-01-13T03:27:39.777Z,99316.97
2023-01-13T03:30:30.859Z,99320.50
2023-01-13T03:33:02.809Z,99325.47
2023-01-13T03:35:35.172Z,99332.91
2023-01-13T03:38:16.102Z,99332.84
2023-01-13T03:40:57.099Z,99322.78
2023-01-13T03:44:06.501Z,99315.44
2023-01-13T03:46:42.475Z,99321.25
2023-01-13T03:49:13.302Z,99328.59
2023-01-13T03:51:44.268Z,99319.53
2023-01-13T03:54:15.797Z,99326.06
2023-01-13T03:56:49.207Z,99320.63
2023-01-13T03:59:22.606Z,99321.44
2023-01-13T04:02:02.320Z,99331.72
2023-01-13T04:04:39.159Z,99326.75
2023-01-13T04:07:14.339Z,99338.81
2023-01-13T04:09:51.106Z,99326.22
2023-01-13T04:12:22.938Z,99324.72
2023-01-13T04:14:49.903Z,99335.44
2023-01-13T04:17:16.993Z,99348.66
2023-01-13T04:19:43.598Z,99340.84
2023-01-13T04:22:10.195Z,99345.13
2023-01-13T04:24:37.284Z,99351.34
2023-01-13T04:27:04.283Z,99346.91
2023-01-13T04:29:30.856Z,99330.41
2023-01-13T04:31:57.460Z,99335.06
2023-01-13T04:34:24.007Z,99342.59
2023-01-13T04:36:50.511Z,99339.59
2023-01-13T04:39:17.184Z,99340.63
2023-01-13T04:41:58.807Z,99341.13
2023-01-13T04:44:26.528Z,99350.84
2023-01-13T04:46:53.827Z,99334.53
2023-01-13T04:49:20.522Z,99329.28
2023-01-13T04:51:47.215Z,99329.94
2023-01-13T04:54:13.963Z,99329.50
2023-01-13T04:56:40.529Z,99328.16
2023-01-13T04:59:07.326Z,99327.41
2023-01-13T05:01:34.059Z,99317.03
2023-01-13T05:04:00.715Z,99313.81
2023-01-13T05:06:27.369Z,99316.38
2023-01-13T05:08:54.059Z,99314.47
2023-01-13T05:11:39.534Z,99314.75
2023-01-13T05:14:24.694Z,99318.09
2023-01-13T05:17:00.584Z,99310.38
2023-01-13T05:19:34.969Z,99300.72
2023-01-13T05:22:21.119Z,99298.81
2023-01-13T05:25:06.281Z,99300.22
2023-01-13T05:27:33.690Z,99299.91
2023-01-13T05:30:00.640Z,99300.03
2023-01-13T05:32:30.572Z,99312.19
2023-01-13T05:34:57.288Z,99312.34
2023-01-13T05:37:24.351Z,99314.41
2023-01-13T05:40:09.572Z,99313.50
2023-01-13T05:42:54.730Z,99312.19
2023-01-13T05:45:21.474Z,99304.50
2023-01-13T05:47:48.109Z,99302.00
2023-01-13T05:50:15.080Z,99309.22
2023-01-13T05:52:41.796Z,99300.78
2023-01-13T05:55:08.739Z,99295.16
2023-01-13T05:57:35.567Z,99291.94
2023-01-13T06:00:02.591Z,99299.00
2023-01-13T06:02:29.183Z,99296.91
2023-01-13T06:04:56.968Z,99296.41
2023-01-13T06:07:23.601Z,99285.41
2023-01-13T06:09:50.186Z,99296.31
2023-01-13T06:12:16.701Z,99295.81
2023-01-13T06:14:43.227Z,99294.31
2023-01-13T06:17:14.522Z,99296.81
2023-01-13T06:19:41.863Z,99300.31
2023-01-13T06:22:32.971Z,99301.66
2023-01-13T06:24:59.609Z,99312.72
2023-01-13T06:27:26.391Z,99305.53
2023-01-13T06:29:52.937Z,99315.31
2023-01-13T06:32:25.660Z,99321.41
2023-01-13T06:34:58.415Z,99310.84
2023-01-13T06:37:26.233Z,99306.34
2023-01-13T06:39:58.559Z,99304.13
2023-01-13T06:42:46.835Z,99301.75
2023-01-13T06:45:13.698Z,99298.09
2023-01-13T06:47:40.893Z,99321.81
2023-01-13T06:50:07.886Z,99318.13
2023-01-13T06:52:34.459Z,99315.88
2023-01-13T06:55:01.002Z,99323.22
2023-01-13T06:57:27.621Z,99317.09
2023-01-13T06:59:54.176Z,99333.72
2023-01-13T07:02:20.898Z,99335.97
2023-01-13T07:04:47.708Z,99335.16
2023-01-13T07:07:14.544Z,99345.38
2023-01-13T07:09:41.158Z,99333.56
2023-01-13T07:12:07.932Z,99326.56
2023-01-13T07:14:54.171Z,99331.25
2023-01-13T07:17:25.372Z,99326.66
2023-01-13T07:19:53.193Z,99328.00
2023-01-13T07:22:19.850Z,99329.00
2023-01-13T07:24:46.477Z,99331.66
2023-01-13T07:27:13.020Z,99331.19
2023-01-13T07:29:39.782Z,99328.19
2023-01-13T07:32:07.793Z,99331.09
2023-01-13T07:34:34.387Z,99330.22
2023-01-13T07:37:01.161Z,99332.66
2023-01-13T07:39:27.837Z,99328.84
2023-01-13T07:42:12.727Z,99330.81
2023-01-13T07:44:39.415Z,99321.38
2023-01-13T07:47:06.091Z,99333.88
2023-01-13T07:49:33.251Z,99325.91
2023-01-13T07:51:59.834Z,99319.13
2023-01-13T07:54:39.666Z,99312.41
2023-01-13T07:57:07.261Z,99319.78
2023-01-13T07:59:33.812Z,99335.69
2023-01-13T08:02:00.659Z,99334.22
2023-01-13T08:04:27.300Z,99345.44
2023-01-13T08:06:53.892Z,99344.38
2023-01-13T08:09:20.477Z,99344.50
2023-01-13T08:12:07.021Z,99346.41
2023-01-13T08:14:33.700Z,99342.59
2023-01-13T08:17:00.615Z,99341.75
2023-01-13T08:19:27.198Z,99348.91
2023-01-13T08:21:53.820Z,99348.13
2023-01-13T08:24:20.391Z,99351.66
2023-01-13T08:26:47.138Z,99350.88
2023-01-13T08:29:15.027Z,99358.91
2023-01-13T08:31:41.896Z,99366.91
2023-01-13T08:34:08.494Z,99369.50
2023-01-13T08:36:35.059Z,99366.16
2023-01-13T08:39:02.014Z,99370.66
2023-01-13T08:41:47.389Z,99373.84
2023-01-13T08:44:13.985Z,99370.16
2023-01-13T08:46:41.776Z,99362.47
2023-01-13T08:49:08.374Z,99368.38
2023-01-13T08:51:36.298Z,99365.03
2023-01-13T08:54:03.361Z,99365.34
2023-01-13T08:56:32.224Z,99369.84
2023-01-13T08:59:01.421Z,99373.19
2023-01-13T09:01:28.336Z,99370.16
2023-01-13T09:03:55.708Z,99363.25
2023-01-13T09:06:22.498Z,99372.88
2023-01-13T09:08:49.662Z,99382.94
2023-01-13T09:11:50.365Z,99385.16
2023-01-13T09:14:19.206Z,99401.66
2023-01-13T09:16:45.804Z,99391.50
2023-01-13T09:19:12.374Z,99369.81
2023-01-13T09:21:39.518Z,99368.28
2023-01-13T09:24:06.844Z,99367.72
2023-01-13T09:26:33.676Z,99364.34
2023-01-13T09:29:00.427Z,99356.19
2023-01-13T09:31:27.054Z,99344.16
2023-01-13T09:34:12.268Z,99349.22
2023-01-13T09:36:39.054Z,99349.88
2023-01-13T09:39:06.360Z,99342.16
2023-01-13T09:41:59.108Z,99331.31
2023-01-13T09:44:35.175Z,99327.56
2023-01-13T09:47:07.205Z,99326.03
2023-01-13T09:49:42.889Z,99314.25
2023-01-13T09:52:12.418Z,99303.50
2023-01-13T09:54:44.988Z,99317.16
2023-01-13T09:57:14.171Z,99317.44
2023-01-13T09:59:41.663Z,99316.84
2023-01-13T10:02:20.355Z,99302.47
2023-01-13T10:05:23.238Z,99298.69
2023-01-13T10:07:54.337Z,99300.22
2023-01-13T10:10:37.925Z,99286.34
2023-01-13T10:13:31.231Z,99288.72
2023-01-13T10:16:41.916Z,99285.38
2023-01-13T10:19:31.089Z,99269.66
2023-01-13T10:22:19.003Z,99272.22
2023-01-13T10:25:02.978Z,99276.06
2023-01-13T10:27:32.588Z,99282.28
2023-01-13T10:29:59.176Z,99274.66
2023-01-13T10:32:25.825Z,99278.91
2023-01-13T10:34:52.445Z,99280.38
2023-01-13T10:37:27.730Z,99262.56
2023-01-13T10:39:56.617Z,99269.56
2023-01-13T10:42:25.438Z,99270.09
2023-01-13T10:44:57.579Z,99251.50
2023-01-13T10:47:32.849Z,99260.84
2023-01-13T10:50:11.433Z,99268.53
2023-01-13T10:52:59.985Z,99270.59
2023-01-13T10:55:30.751Z,99254.19
2023-01-13T10:57:57.595Z,99254.50
2023-01-13T11:00:33.213Z,99253.38
2023-01-13T11:03:28.047Z,99244.44
2023-01-13T11:05:59.256Z,99243.38
2023-01-13T11:08:47.075Z,99248.59
2023-01-13T11:11:35.386Z,99232.31
2023-01-13T11:14:24.997Z,99230.31
2023-01-13T11:16:57.350Z,99226.19
2023-01-13T11:19:27.589Z,99230.72
2023-01-13T11:22:06.341Z,99229.88
2023-01-13T11:24:45.863Z,99227.66
2023-01-13T11:27:12.341Z,99234.13
2023-01-13T11:29:52.628Z,99234.63
2023-01-13T11:32:21.362Z,99236.78
2023-01-13T11:34:53.885Z,99222.84
2023-01-13T11:37:27.684Z,99228.72
2023-01-13T11:40:11.922Z,99219.13
2023-01-13T11:42:46.561Z,99220.59
2023-01-13T11:45:18.935Z,99218.66
2023-01-13T11:47:52.119Z,99211.66
2023-01-13T11:50:34.426Z,99221.78
2023-01-13T11:53:17.606Z,99210.00
2023-01-13T11:56:07.028Z,99217.78
2023-01-13T11:59:06.605Z,99217.59
2023-01-13T12:01:39.044Z,99227.25
2023-01-13T12:04:40.602Z,99206.78
2023-01-13T12:07:22.152Z,99211.97
2023-01-13T12:10:03.822Z,99200.69
2023-01-13T12:12:39.637Z,99201.28
2023-01-13T12:15:54.059Z,99199.00
2023-01-13T12:18:32.353Z,99195.25
2023-01-13T12:21:00.083Z,99192.19
2023-01-13T12:24:13.300Z,99184.31
2023-01-13T12:26:46.709Z,99175.47
2023-01-13T12:29:19.123Z,99176.19
2023-01-13T12:31:49.147Z,99178.03
2023-01-13T12:34:21.538Z,99178.22
2023-01-13T12:37:07.377Z,99174.56
2023-01-13T12:39:48.406Z,99178.69
2023-01-13T12:42:52.528Z,99168.09
2023-01-13T12:45:19.415Z,99168.56
2023-01-13T12:47:46.429Z,99167.88
2023-01-13T12:50:21.920Z,99166.59
2023-01-13T12:52:58.805Z,99171.53
2023-01-13T12:55:32.452Z,99166.50
2023-01-13T12:58:08.280Z,99176.28
2023-01-13T13:00:40.966Z,99179.03
2023-01-13T13:03:19.266Z,99187.13
2023-01-13T13:05:57.090Z,99183.78
2023-01-13T13:08:55.493Z,99184.56
2023-01-13T13:11:58.474Z,99185.00
2023-01-13T13:14:43.654Z,99172.59
2023-01-13T13:17:28.494Z,99182.06
2023-01-13T13:20:00.261Z,99184.66
2023-01-13T13:25:21.570Z,99189.72
2023-01-13T13:28:11.808Z,99191.81
2023-01-13T13:30:49.055Z,99182.47
2023-01-13T13:33:39.244Z,99191.13
2023-01-13T13:36:37.843Z,99198.31
2023-01-13T13:39:39.974Z,99190.56
2023-01-13T13:42:45.003Z,99197.75
2023-01-13T13:45:42.166Z,99198.69
2023-01-13T13:48:25.883Z,99196.41
2023-01-13T13:51:14.320Z,99198.56
2023-01-13T13:53:42.359Z,99208.69
2023-01-13T13:56:26.100Z,99202.91
2023-01-13T13:58:53.454Z,99197.66
2023-01-13T14:01:27.045Z,99210.72
2023-01-13T14:04:17.506Z,99205.91
2023-01-13T14:07:20.532Z,99212.75
2023-01-13T14:09:56.583Z,99222.06
2023-01-13T14:12:25.644Z,99223.53
2023-01-13T14:14:54.239Z,99226.28
2023-01-13T14:17:26.485Z,99225.91
2023-01-13T14:19:57.973Z,99226.28
2023-01-13T14:22:24.643Z,99224.16
2023-01-13T14:24:55.727Z,99224.84
2023-01-13T14:27:23.965Z,99232.56
2023-01-13T14:29:55.282Z,99236.09
2023-01-13T14:32:29.807Z,99250.44
2023-01-13T14:34:56.391Z,99246.13
2023-01-13T14:37:39.616Z,99244.84
2023-01-13T14:40:07.123Z,99250.63
2023-01-13T14:42:35.539Z,99239.59
2023-01-13T14:45:03.315Z,99244.56
2023-01-13T14:47:34.059Z,99247.63
2023-01-13T14:50:16.450Z,99241.09
2023-01-13T14:52:52.673Z,99252.03
2023-01-13T14:55:40.770Z,99258.66
2023-01-13T14:58:33.713Z,99266.69
2023-01-13T15:01:45.728Z,99262.34
2023-01-13T15:04:17.031Z,99266.53
2023-01-13T15:06:47.766Z,99264.16
2023-01-13T15:09:14.318Z,99262.88
2023-01-13T15:14:31.306Z,99257.75
2023-01-13T15:16:58.095Z,99264.63
2023-01-13T15:19:24.633Z,99267.03
2023-01-13T15:21:51.195Z,99265.75
2023-01-13T15:24:17.832Z,99264.81
2023-01-13T15:26:44.352Z,99259.69
2023-01-13T15:29:17.132Z,99259.22
2023-01-13T15:31:44.140Z,99254.22
2023-01-13T15:34:10.669Z,99250.50
2023-01-13T15:36:37.955Z,99254.84
2023-01-13T15:39:04.831Z,99265.41
2023-01-13T15:41:50.092Z,99258.03
2023-01-13T15:44:35.797Z,99223.00
2023-01-13T15:47:11.943Z,99249.84
2023-01-13T15:49:46.541Z,99253.06
2023-01-13T15:52:25.063Z,99258.41
2023-01-13T15:54:53.220Z,99250.41
2023-01-13T15:57:23.205Z,99247.41
2023-01-13T15:59:51.299Z,99252.38
2023-01-13T16:02:22.541Z,99251.63
2023-01-13T16:04:51.307Z,99240.53
2023-01-13T16:07:19.230Z,99233.19
2023-01-13T16:09:45.965Z,99239.34
2023-01-13T16:12:13.483Z,99259.84
2023-01-13T16:14:40.411Z,99253.72
2023-01-13T16:17:29.614Z,99257.09
2023-01-13T16:19:56.624Z,99254.09
2023-01-13T16:22:23.538Z,99254.28
2023-01-13T16:24:50.279Z,99259.28
2023-01-13T16:27:25.341Z,99267.66
2023-01-13T16:29:52.574Z,99264.44
2023-01-13T16:32:20.975Z,99295.22
2023-01-13T16:34:48.039Z,99299.38
2023-01-13T16:37:24.783Z,99304.34
2023-01-13T16:39:52.592Z,99312.53
2023-01-13T16:42:20.139Z,99332.59
2023-01-13T16:44:48.392Z,99349.91
2023-01-13T16:47:16.738Z,99352.13
2023-01-13T16:49:43.834Z,99363.19
2023-01-13T16:52:13.018Z,99353.56
2023-01-13T16:54:39.584Z,99347.28
2023-01-13T16:57:07.773Z,99374.69
2023-01-13T16:59:34.310Z,99375.94
2023-01-13T17:02:02.114Z,99411.41
2023-01-13T17:04:28.746Z,99395.78
2023-01-13T17:07:00.427Z,99377.28
2023-01-13T17:09:28.857Z,99378.22
2023-01-13T17:11:56.009Z,99338.81
2023-01-13T17:14:23.652Z,99331.75
2023-01-13T17:16:52.677Z,99330.72
2023-01-13T17:19:21.658Z,99327.56
2023-01-13T17:21:48.306Z,99339.00
2023-01-13T17:24:14.878Z,99339.50
2023-01-13T17:26:46.847Z,99333.53
2023-01-13T17:29:16.238Z,99330.06
2023-01-13T17:31:42.888Z,99324.78
2023-01-13T17:34:11.279Z,99329.41
2023-01-13T17:36:38.464Z,99337.13
2023-01-13T17:39:05.324Z,99335.25
2023-01-13T17:41:31.915Z,99334.97
2023-01-13T17:43:58.432Z,99331.28
2023-01-13T17:46:25.027Z,99342.00
2023-01-13T17:48:53.638Z,99338.63
2023-01-13T17:51:22.668Z,99346.16
2023-01-13T17:53:49.194Z,99347.94
2023-01-13T17:56:17.016Z,99351.19
2023-01-13T17:58:45.458Z,99365.34
2023-01-13T18:01:17.721Z,99357.81
2023-01-13T18:03:44.856Z,99355.88
2023-01-13T18:06:16.969Z,99368.38
2023-01-13T18:08:43.606Z,99366.63
2023-01-13T18:11:10.303Z,99383.50
2023-01-13T18:13:38.550Z,99375.47
2023-01-13T18:16:13.377Z,99370.47
2023-01-13T18:18:42.320Z,99365.16
2023-01-13T18:21:39.636Z,99381.38
2023-01-13T18:24:29.296Z,99390.84
2023-01-13T18:27:14.265Z,99381.84
2023-01-13T18:29:40.848Z,99371.47
2023-01-13T18:32:08.960Z,99379.31
2023-01-13T18:34:39.218Z,99384.94
2023-01-13T18:37:07.480Z,99377.22
2023-01-13T18:39:34.306Z,99397.03
2023-01-13T18:42:19.534Z,99403.78
2023-01-13T18:44:46.075Z,99431.91
2023-01-13T18:47:12.670Z,99503.72
2023-01-13T18:49:39.206Z,99476.16
2023-01-13T18:52:05.777Z,99502.75
2023-01-13T18:54:32.371Z,99502.25
2023-01-13T18:57:01.052Z,99499.88
2023-01-13T18:59:28.185Z,99513.59
2023-01-13T19:01:54.779Z,99511.06
2023-01-13T19:04:21.957Z,99514.94
2023-01-13T19:06:51.465Z,99509.16
2023-01-13T19:09:20.523Z,99524.44
2023-01-13T19:11:47.098Z,99509.16
2023-01-13T19:14:34.067Z,99502.03
2023-01-13T19:17:01.558Z,99491.41
2023-01-13T19:19:28.512Z,99502.09
2023-01-13T19:21:56.296Z,99505.94
2023-01-13T19:24:23.545Z,99500.81
2023-01-13T19:26:50.049Z,99509.03
2023-01-13T19:29:16.539Z,99506.81
2023-01-13T19:31:43.115Z,99502.97
2023-01-13T19:34:09.703Z,99506.81
2023-01-13T19:36:36.252Z,99513.06
2023-01-13T19:39:02.879Z,99524.47
2023-01-13T19:41:47.782Z,99524.13
2023-01-13T19:44:32.743Z,99530.53
2023-01-13T19:46:59.252Z,99533.91
2023-01-13T19:49:25.768Z,99529.25
2023-01-13T19:51:52.310Z,99529.59
2023-01-13T19:54:18.823Z,99519.94
2023-01-13T19:56:45.388Z,99525.41
2023-01-13T19:59:13.384Z,99529.63
2023-01-13T20:01:41.199Z,99539.25
2023-01-13T20:04:14.287Z,99533.75
2023-01-13T20:06:41.243Z,99538.13
2023-01-13T20:09:08.848Z,99534.41
2023-01-13T20:11:36.498Z,99535.38
2023-01-13T20:14:03.088Z,99549.66
2023-01-13T20:16:32.998Z,99543.56
2023-01-13T20:18:59.846Z,99552.00
2023-01-13T20:21:26.527Z,99561.66
2023-01-13T20:23:53.621Z,99556.34
2023-01-13T20:26:20.836Z,99552.47
2023-01-13T20:28:48.029Z,99550.00
2023-01-13T20:31:15.735Z,99557.59
2023-01-13T20:33:43.056Z,99545.50
2023-01-13T20:36:23.190Z,99542.47
2023-01-13T20:38:49.800Z,99541.59
2023-01-13T20:41:35.027Z,99544.88
2023-01-13T20:44:01.569Z,99553.00
2023-01-13T20:46:28.151Z,99565.59
2023-01-13T20:48:55.006Z,99561.56
2023-01-13T20:51:21.523Z,99563.75
2023-01-13T20:53:48.009Z,99558.13
2023-01-13T20:56:14.628Z,99556.53
2023-01-13T20:58:41.275Z,99560.31
2023-01-13T21:01:08.078Z,99554.59
2023-01-13T21:03:34.761Z,99549.38
2023-01-13T21:06:01.509Z,99558.41
2023-01-13T21:08:28.169Z,99555.28
2023-01-13T21:11:05.776Z,99556.59
2023-01-13T21:13:51.434Z,99554.72
2023-01-13T21:16:18.047Z,99563.91
2023-01-13T21:19:03.209Z,99558.41
2023-01-13T21:21:29.739Z,99553.31
2023-01-13T21:23:56.361Z,99550.09
2023-01-13T21:26:23.128Z,99547.00
2023-01-13T21:28:50.050Z,99547.59
2023-01-13T21:31:17.833Z,99549.94
2023-01-13T21:33:47.577Z,99547.00
2023-01-13T21:36:15.174Z,99553.53
2023-01-13T21:38:42.212Z,99557.59
2023-01-13T21:41:09.502Z,99547.66
2023-01-13T21:43:56.172Z,99548.56
2023-01-13T21:46:42.471Z,99548.28
2023-01-13T21:49:09.199Z,99551.72
2023-01-13T21:51:36.070Z,99563.50
2023-01-13T21:54:02.635Z,99562.00
2023-01-13T21:56:29.150Z,99562.16
2023-01-13T21:58:58.547Z,99570.94
2023-01-13T22:01:25.230Z,99568.25
2023-01-13T22:04:10.331Z,99572.81
2023-01-13T22:06:36.861Z,99589.06
2023-01-13T22:09:03.889Z,99590.81
2023-01-13T22:11:32.241Z,99595.59
2023-01-13T22:14:06.475Z,99594.44
2023-01-13T22:16:39.374Z,99602.31
2023-01-13T22:19:07.301Z,99612.16
2023-01-13T22:21:34.255Z,99612.34
2023-01-13T22:24:01.324Z,99618.97
2023-01-13T22:26:28.292Z,99609.16
2023-01-13T22:28:55.254Z,99621.47
2023-01-13T22:31:23.822Z,99624.41
2023-01-13T22:33:55.159Z,99619.16
2023-01-13T22:36:26.440Z,99615.06
2023-01-13T22:38:55.422Z,99619.41
2023-01-13T22:41:22.499Z,99620.56
2023-01-13T22:43:49.066Z,99626.56
2023-01-13T22:46:15.825Z,99629.66
2023-01-13T22:48:43.905Z,99633.72
2023-01-13T22:51:12.841Z,99623.13
2023-01-13T22:53:40.153Z,99622.31
2023-01-13T22:56:07.630Z,99631.78
2023-01-13T22:58:34.274Z,99629.41
2023-01-13T23:01:12.278Z,99631.34
2023-01-13T23:03:38.940Z,99633.94
2023-01-13T23:06:06.061Z,99636.22
2023-01-13T23:08:33.665Z,99632.34
2023-01-13T23:11:05.437Z,99632.47
2023-01-13T23:13:32.258Z,99636.47
2023-01-13T23:16:06.439Z,99638.34
2023-01-13T23:18:33.299Z,99634.47
2023-01-13T23:21:12.797Z,99629.44
2023-01-13T23:23:39.838Z,99618.28
2023-01-13T23:26:07.225Z,99627.63
2023-01-13T23:28:35.810Z,99629.69
2023-01-13T23:31:19.465Z,99626.28
2023-01-13T23:33:46.753Z,99623.53
2023-01-13T23:36:19.495Z,99633.09
2023-01-13T23:38:46.520Z,99628.19
2023-01-13T23:41:22.263Z,99619.97
2023-01-13T23:43:53.575Z,99638.13
2023-01-13T23:46:20.490Z,99638.94
2023-01-13T23:48:47.466Z,99631.13
2023-01-13T23:51:14.391Z,99631.19
2023-01-13T23:53:44.036Z,99625.41
2023-01-13T23:56:16.582Z,99620.78
2023-01-13T23:58:44.156Z,99628.19
